createdAt,value
2024-03-07T00:00:16.968Z,100.00
2024-03-07T00:10:18.840Z,100.00
2024-03-07T00:20:21.704Z,100.00
2024-03-07T00:30:23.581Z,100.00
2024-03-07T00:40:25.447Z,100.00
2024-03-07T00:50:27.349Z,100.00
2024-03-07T01:00:29.512Z,100.00
2024-03-07T01:10:31.449Z,100.00
2024-03-07T01:20:33.400Z,100.00
2024-03-07T01:30:35.162Z,100.00
2024-03-07T01:40:36.906Z,100.00
2024-03-07T01:50:41.512Z,100.00
2024-03-07T02:00:45.147Z,100.00
2024-03-07T02:10:47.466Z,100.00
2024-03-07T02:20:49.805Z,100.00
2024-03-07T02:30:51.625Z,100.00
2024-03-07T02:40:53.497Z,100.00
2024-03-07T02:50:55.309Z,100.00
2024-03-07T03:01:01.128Z,100.00
2024-03-07T03:11:02.981Z,100.00
2024-03-07T03:21:04.946Z,100.00
2024-03-07T03:31:06.790Z,100.00
2024-03-07T03:41:08.586Z,100.00
2024-03-07T03:51:10.867Z,100.00
2024-03-07T04:01:16.028Z,100.00
2024-03-07T04:11:18.262Z,100.00
2024-03-07T04:21:20.410Z,100.00
2024-03-07T04:31:22.014Z,100.00
2024-03-07T04:41:24.707Z,100.00
2024-03-07T04:51:26.736Z,100.00
2024-03-07T05:01:28.316Z,100.00
2024-03-07T05:11:33.880Z,100.00
2024-03-07T05:21:39.472Z,100.00
2024-03-07T05:31:52.097Z,100.00
2024-03-07T05:41:55.741Z,100.00
2024-03-07T05:51:59.399Z,100.00
2024-03-07T06:02:01.192Z,100.00
2024-03-07T06:12:10.148Z,100.00
2024-03-07T06:22:18.564Z,100.00
2024-03-07T06:32:20.471Z,100.00
2024-03-07T06:42:23.100Z,100.00
2024-03-07T06:52:24.933Z,100.00
2024-03-07T07:02:28.888Z,100.00
2024-03-07T07:12:30.815Z,100.00
2024-03-07T07:22:35.859Z,100.00
2024-03-07T07:32:38.031Z,100.00
2024-03-07T07:42:40.898Z,100.00
2024-03-07T07:52:51.495Z,100.00
2024-03-07T08:03:02.698Z,100.00
2024-03-07T08:13:11.480Z,100.00
2024-03-07T08:23:14.311Z,100.00
2024-03-07T08:33:16.289Z,100.00
2024-03-07T08:43:18.104Z,100.00
2024-03-07T08:53:20.052Z,100.00
2024-03-07T09:03:23.032Z,100.00
2024-03-07T09:13:25.515Z,100.00
2024-03-07T09:23:27.272Z,100.00
2024-03-07T09:33:29.500Z,100.00
2024-03-07T09:43:34.230Z,100.00
2024-03-07T09:53:38.319Z,99.47
2024-03-07T10:03:46.086Z,97.36
2024-03-07T10:13:50.410Z,96.63
2024-03-07T10:24:06.750Z,95.23
2024-03-07T10:34:09.321Z,94.43
2024-03-07T10:44:17.073Z,87.51
2024-03-07T10:54:35.679Z,83.75
2024-03-07T11:04:38.122Z,82.22
2024-03-07T11:14:41.649Z,85.45
2024-03-07T11:24:44.193Z,83.59
2024-03-07T11:34:49.273Z,84.81
2024-03-07T11:44:52.667Z,87.22
2024-03-07T11:54:54.809Z,89.39
2024-03-07T12:04:56.649Z,88.03
2024-03-07T12:14:58.767Z,89.26
2024-03-07T12:25:10.052Z,89.80
2024-03-07T12:35:13.767Z,91.75
2024-03-07T12:45:21.345Z,90.10
2024-03-07T12:55:23.232Z,88.01
2024-03-07T13:05:25.808Z,87.12
2024-03-07T13:15:27.581Z,86.39
2024-03-07T13:25:34.280Z,84.10
2024-03-07T13:35:37.305Z,83.87
2024-03-07T13:45:44.974Z,85.41
2024-03-07T13:55:55.544Z,83.20
2024-03-07T14:06:00.309Z,81.88
2024-03-07T14:16:24.974Z,79.53
2024-03-07T14:27:04.962Z,79.69
2024-03-07T14:37:24.967Z,81.24
2024-03-07T14:47:27.137Z,79.08
2024-03-07T14:57:28.957Z,83.52
2024-03-07T15:07:30.689Z,84.16
2024-03-07T15:17:32.500Z,87.22
2024-03-07T15:27:40.698Z,90.94
2024-03-07T15:37:42.687Z,90.52
2024-03-07T15:47:50.355Z,92.02
2024-03-07T15:57:54.772Z,96.41
2024-03-07T16:07:57.831Z,100.00
2024-03-07T16:18:00.730Z,100.00
2024-03-07T16:28:02.999Z,100.00
2024-03-07T16:38:05.443Z,100.00
2024-03-07T16:48:13.727Z,100.00
2024-03-07T16:58:17.370Z,100.00
2024-03-07T17:08:22.042Z,100.00
2024-03-07T17:18:26.085Z,100.00
2024-03-07T17:28:30.310Z,100.00
2024-03-07T17:38:34.421Z,100.00
2024-03-07T17:48:37.737Z,100.00
2024-03-07T17:58:39.868Z,100.00
2024-03-07T18:08:46.014Z,100.00
2024-03-07T18:18:55.726Z,100.00
2024-03-07T18:28:57.539Z,100.00
2024-03-07T18:38:59.349Z,100.00
2024-03-07T18:49:01.181Z,100.00
2024-03-07T18:59:09.180Z,100.00
2024-03-07T19:09:14.008Z,100.00
2024-03-07T19:19:18.317Z,100.00
2024-03-07T19:29:22.279Z,100.00
2024-03-07T19:39:24.841Z,100.00
2024-03-07T19:49:29.260Z,100.00
2024-03-07T19:59:31.057Z,100.00
2024-03-07T20:09:32.761Z,100.00
2024-03-07T20:19:34.981Z,100.00
2024-03-07T20:29:36.823Z,100.00
2024-03-07T20:39:41.963Z,100.00
2024-03-07T20:49:47.304Z,100.00
2024-03-07T20:59:49.012Z,100.00
2024-03-07T21:09:50.776Z,100.00
2024-03-07T21:19:53.011Z,100.00
2024-03-07T21:29:54.902Z,100.00
2024-03-07T21:39:57.672Z,100.00
2024-03-07T21:49:59.759Z,100.00
2024-03-07T22:00:01.619Z,100.00
2024-03-07T22:10:12.981Z,100.00
2024-03-07T22:20:20.137Z,100.00
2024-03-07T22:30:23.282Z,100.00
2024-03-07T22:40:28.974Z,100.00
2024-03-07T22:50:31.879Z,100.00
2024-03-07T23:00:34.009Z,100.00
2024-03-07T23:10:36.119Z,100.00
2024-03-07T23:20:38.720Z,100.00
2024-03-07T23:30:40.597Z,100.00
